Altamont, Utah
Current Conditions -  °F | °C
As of 10:53 PM on Sunday 21 Dec 2014 (Local Time) from KVEL Reporting Station
Overcast Overcast  
Wind Chill: 30°   Ceiling: 8000
Heat Index: 34°   Visibility: 10mi
Dew Point: 30°   Wind: 5mph
Humidity: 85%   Direction: 260°W
Pressure: 29.85"   Gusts: NA
Location:  40.36°N, 110.29°W
Report Text: KVEL 220553Z AUTO 26004KT 10SM BKN080 OVC090 01/M01 A2985 RMK AO2 SLP120 T00111011 10017 20000 52000
Loading
Personal Weather Stations






























Interactive Weather Map New forecast layout! Learn more

10-Day Weather Forecast

Advertisements
Track Severe Weather on mobile